sensor_id;sensor_type;location;lat;lon;timestamp;P1;durP1;ratioP1;P2;durP2;ratioP2
18789;SDS011;9523;42.650;23.386;2023-10-08T00:02:16;5.50;;;1.97;;
18789;SDS011;9523;42.650;23.386;2023-10-08T00:04:47;3.27;;;1.77;;
18789;SDS011;9523;42.650;23.386;2023-10-08T00:07:16;3.80;;;2.17;;
18789;SDS011;9523;42.650;23.386;2023-10-08T00:09:46;3.70;;;2.17;;
18789;SDS011;9523;42.650;23.386;2023-10-08T00:12:14;3.43;;;1.90;;
18789;SDS011;9523;42.650;23.386;2023-10-08T00:14:41;4.17;;;1.97;;
18789;SDS011;9523;42.650;23.386;2023-10-08T00:17:10;4.37;;;2.13;;
18789;SDS011;9523;42.650;23.386;2023-10-08T00:19:36;4.97;;;2.10;;
18789;SDS011;9523;42.650;23.386;2023-10-08T00:22:04;4.20;;;2.00;;
18789;SDS011;9523;42.650;23.386;2023-10-08T00:24:32;3.03;;;1.90;;
18789;SDS011;9523;42.650;23.386;2023-10-08T00:26:58;3.83;;;2.00;;
18789;SDS011;9523;42.650;23.386;2023-10-08T00:29:26;3.60;;;2.07;;
18789;SDS011;9523;42.650;23.386;2023-10-08T00:31:56;3.47;;;2.27;;
18789;SDS011;9523;42.650;23.386;2023-10-08T00:34:23;4.33;;;2.10;;
18789;SDS011;9523;42.650;23.386;2023-10-08T00:36:50;3.50;;;2.00;;
18789;SDS011;9523;42.650;23.386;2023-10-08T00:39:17;2.93;;;1.80;;
18789;SDS011;9523;42.650;23.386;2023-10-08T00:41:48;3.97;;;2.03;;
18789;SDS011;9523;42.650;23.386;2023-10-08T00:44:15;4.63;;;1.90;;
18789;SDS011;9523;42.650;23.386;2023-10-08T00:46:49;4.43;;;2.13;;
18789;SDS011;9523;42.650;23.386;2023-10-08T00:49:16;4.77;;;2.03;;
18789;SDS011;9523;42.650;23.386;2023-10-08T00:52:04;4.17;;;2.17;;
18789;SDS011;9523;42.650;23.386;2023-10-08T00:54:51;4.57;;;2.27;;
18789;SDS011;9523;42.650;23.386;2023-10-08T00:57:31;3.53;;;2.17;;
18789;SDS011;9523;42.650;23.386;2023-10-08T01:00:00;3.03;;;2.03;;
18789;SDS011;9523;42.650;23.386;2023-10-08T01:02:32;3.80;;;1.90;;
18789;SDS011;9523;42.650;23.386;2023-10-08T01:05:11;3.40;;;2.07;;
18789;SDS011;9523;42.650;23.386;2023-10-08T01:07:38;3.30;;;2.00;;
18789;SDS011;9523;42.650;23.386;2023-10-08T01:10:07;4.57;;;1.93;;
18789;SDS011;9523;42.650;23.386;2023-10-08T01:12:38;4.23;;;1.87;;
18789;SDS011;9523;42.650;23.386;2023-10-08T01:15:19;3.13;;;1.80;;
18789;SDS011;9523;42.650;23.386;2023-10-08T01:17:50;5.40;;;2.37;;
18789;SDS011;9523;42.650;23.386;2023-10-08T01:20:23;2.13;;;1.70;;
18789;SDS011;9523;42.650;23.386;2023-10-08T01:23:00;3.20;;;2.13;;
18789;SDS011;9523;42.650;23.386;2023-10-08T01:25:37;4.10;;;2.23;;
18789;SDS011;9523;42.650;23.386;2023-10-08T01:28:05;4.17;;;2.07;;
18789;SDS011;9523;42.650;23.386;2023-10-08T01:30:39;4.43;;;2.30;;
18789;SDS011;9523;42.650;23.386;2023-10-08T01:33:07;3.20;;;1.60;;
18789;SDS011;9523;42.650;23.386;2023-10-08T01:35:36;4.03;;;2.17;;
18789;SDS011;9523;42.650;23.386;2023-10-08T01:38:05;4.30;;;2.00;;
18789;SDS011;9523;42.650;23.386;2023-10-08T01:40:32;3.43;;;1.80;;
18789;SDS011;9523;42.650;23.386;2023-10-08T01:42:59;3.63;;;1.80;;
18789;SDS011;9523;42.650;23.386;2023-10-08T01:45:26;4.33;;;2.37;;
18789;SDS011;9523;42.650;23.386;2023-10-08T01:47:54;3.30;;;1.87;;
18789;SDS011;9523;42.650;23.386;2023-10-08T01:50:22;3.10;;;1.87;;
18789;SDS011;9523;42.650;23.386;2023-10-08T01:52:50;3.73;;;2.10;;
18789;SDS011;9523;42.650;23.386;2023-10-08T01:55:18;3.50;;;1.87;;
18789;SDS011;9523;42.650;23.386;2023-10-08T01:57:45;5.10;;;2.00;;
18789;SDS011;9523;42.650;23.386;2023-10-08T02:00:12;4.40;;;1.80;;
18789;SDS011;9523;42.650;23.386;2023-10-08T02:02:39;2.83;;;1.87;;
18789;SDS011;9523;42.650;23.386;2023-10-08T02:05:07;3.40;;;1.83;;
18789;SDS011;9523;42.650;23.386;2023-10-08T02:07:33;3.13;;;1.70;;
18789;SDS011;9523;42.650;23.386;2023-10-08T02:10:00;3.40;;;2.10;;
18789;SDS011;9523;42.650;23.386;2023-10-08T02:12:28;3.37;;;2.17;;
18789;SDS011;9523;42.650;23.386;2023-10-08T02:14:55;4.33;;;2.03;;
18789;SDS011;9523;42.650;23.386;2023-10-08T02:17:22;3.60;;;2.20;;
18789;SDS011;9523;42.650;23.386;2023-10-08T02:19:49;3.17;;;1.90;;
18789;SDS011;9523;42.650;23.386;2023-10-08T02:22:15;2.57;;;1.90;;
18789;SDS011;9523;42.650;23.386;2023-10-08T02:24:42;4.73;;;2.20;;
18789;SDS011;9523;42.650;23.386;2023-10-08T02:27:08;3.77;;;1.93;;
18789;SDS011;9523;42.650;23.386;2023-10-08T02:29:37;5.27;;;2.20;;
18789;SDS011;9523;42.650;23.386;2023-10-08T02:32:04;4.07;;;2.33;;
18789;SDS011;9523;42.650;23.386;2023-10-08T02:34:31;3.93;;;2.27;;
18789;SDS011;9523;42.650;23.386;2023-10-08T02:36:58;4.87;;;2.20;;
18789;SDS011;9523;42.650;23.386;2023-10-08T02:39:24;7.23;;;2.23;;
18789;SDS011;9523;42.650;23.386;2023-10-08T02:41:51;4.50;;;2.10;;
18789;SDS011;9523;42.650;23.386;2023-10-08T02:44:19;3.90;;;2.10;;
18789;SDS011;9523;42.650;23.386;2023-10-08T02:46:47;4.90;;;2.43;;
18789;SDS011;9523;42.650;23.386;2023-10-08T02:49:14;4.10;;;2.40;;
18789;SDS011;9523;42.650;23.386;2023-10-08T02:51:45;5.87;;;2.40;;
18789;SDS011;9523;42.650;23.386;2023-10-08T02:54:11;5.80;;;2.40;;
18789;SDS011;9523;42.650;23.386;2023-10-08T02:56:43;4.27;;;2.33;;
18789;SDS011;9523;42.650;23.386;2023-10-08T02:59:11;4.50;;;2.47;;
18789;SDS011;9523;42.650;23.386;2023-10-08T03:01:39;3.03;;;2.20;;
18789;SDS011;9523;42.650;23.386;2023-10-08T03:04:07;4.87;;;2.23;;
18789;SDS011;9523;42.650;23.386;2023-10-08T03:06:42;4.60;;;2.23;;
18789;SDS011;9523;42.650;23.386;2023-10-08T03:09:09;5.27;;;2.20;;
18789;SDS011;9523;42.650;23.386;2023-10-08T03:11:38;4.17;;;2.03;;
18789;SDS011;9523;42.650;23.386;2023-10-08T03:14:11;6.40;;;2.90;;
18789;SDS011;9523;42.650;23.386;2023-10-08T03:16:40;3.73;;;2.20;;
18789;SDS011;9523;42.650;23.386;2023-10-08T03:19:08;5.77;;;2.87;;
18789;SDS011;9523;42.650;23.386;2023-10-08T03:21:34;5.23;;;2.10;;
18789;SDS011;9523;42.650;23.386;2023-10-08T03:24:14;5.57;;;2.33;;
18789;SDS011;9523;42.650;23.386;2023-10-08T03:26:54;4.67;;;2.30;;
18789;SDS011;9523;42.650;23.386;2023-10-08T03:29:31;3.80;;;2.20;;
18789;SDS011;9523;42.650;23.386;2023-10-08T03:31:58;6.07;;;2.17;;
18789;SDS011;9523;42.650;23.386;2023-10-08T03:34:32;2.77;;;2.10;;
18789;SDS011;9523;42.650;23.386;2023-10-08T03:36:59;4.77;;;2.03;;
18789;SDS011;9523;42.650;23.386;2023-10-08T03:39:31;3.90;;;2.17;;
18789;SDS011;9523;42.650;23.386;2023-10-08T03:42:18;4.23;;;2.13;;
18789;SDS011;9523;42.650;23.386;2023-10-08T03:44:48;4.87;;;2.30;;
18789;SDS011;9523;42.650;23.386;2023-10-08T03:47:17;3.23;;;1.90;;
18789;SDS011;9523;42.650;23.386;2023-10-08T03:49:45;5.10;;;2.00;;
18789;SDS011;9523;42.650;23.386;2023-10-08T03:52:15;3.60;;;1.97;;
18789;SDS011;9523;42.650;23.386;2023-10-08T03:54:42;3.30;;;2.20;;
18789;SDS011;9523;42.650;23.386;2023-10-08T03:57:13;4.77;;;2.03;;
18789;SDS011;9523;42.650;23.386;2023-10-08T03:59:43;4.53;;;2.10;;
18789;SDS011;9523;42.650;23.386;2023-10-08T04:02:13;3.70;;;2.00;;
18789;SDS011;9523;42.650;23.386;2023-10-08T04:04:41;2.80;;;1.50;;
18789;SDS011;9523;42.650;23.386;2023-10-08T04:07:21;3.07;;;1.80;;
18789;SDS011;9523;42.650;23.386;2023-10-08T04:09:54;3.43;;;2.03;;
18789;SDS011;9523;42.650;23.386;2023-10-08T04:12:41;4.87;;;2.40;;
18789;SDS011;9523;42.650;23.386;2023-10-08T04:15:09;5.13;;;2.27;;
18789;SDS011;9523;42.650;23.386;2023-10-08T04:17:37;3.23;;;2.00;;
18789;SDS011;9523;42.650;23.386;2023-10-08T04:20:09;4.67;;;2.10;;
18789;SDS011;9523;42.650;23.386;2023-10-08T04:22:58;5.03;;;2.27;;
18789;SDS011;9523;42.650;23.386;2023-10-08T04:25:25;2.67;;;2.10;;
18789;SDS011;9523;42.650;23.386;2023-10-08T04:27:53;4.73;;;2.10;;
18789;SDS011;9523;42.650;23.386;2023-10-08T04:30:21;4.17;;;2.37;;
18789;SDS011;9523;42.650;23.386;2023-10-08T04:32:53;4.53;;;2.03;;
18789;SDS011;9523;42.650;23.386;2023-10-08T04:35:19;5.67;;;2.60;;
18789;SDS011;9523;42.650;23.386;2023-10-08T04:37:51;3.43;;;2.10;;
18789;SDS011;9523;42.650;23.386;2023-10-08T04:40:21;4.20;;;2.10;;
18789;SDS011;9523;42.650;23.386;2023-10-08T04:42:49;4.27;;;2.17;;
18789;SDS011;9523;42.650;23.386;2023-10-08T04:45:17;3.90;;;2.43;;
18789;SDS011;9523;42.650;23.386;2023-10-08T04:47:51;4.77;;;2.40;;
18789;SDS011;9523;42.650;23.386;2023-10-08T04:50:19;5.97;;;2.53;;
18789;SDS011;9523;42.650;23.386;2023-10-08T04:52:46;3.53;;;2.30;;
18789;SDS011;9523;42.650;23.386;2023-10-08T04:55:25;4.13;;;2.50;;
18789;SDS011;9523;42.650;23.386;2023-10-08T04:57:54;3.10;;;1.97;;
18789;SDS011;9523;42.650;23.386;2023-10-08T05:00:20;3.50;;;2.43;;
18789;SDS011;9523;42.650;23.386;2023-10-08T05:03:06;4.70;;;2.90;;
18789;SDS011;9523;42.650;23.386;2023-10-08T05:05:39;5.33;;;2.70;;
18789;SDS011;9523;42.650;23.386;2023-10-08T05:08:20;6.73;;;2.70;;
18789;SDS011;9523;42.650;23.386;2023-10-08T05:10:59;6.43;;;2.67;;
18789;SDS011;9523;42.650;23.386;2023-10-08T05:13:39;4.97;;;2.30;;
18789;SDS011;9523;42.650;23.386;2023-10-08T05:16:20;3.30;;;2.10;;
18789;SDS011;9523;42.650;23.386;2023-10-08T05:19:01;5.20;;;2.83;;
18789;SDS011;9523;42.650;23.386;2023-10-08T05:21:49;7.37;;;2.90;;
18789;SDS011;9523;42.650;23.386;2023-10-08T05:24:30;5.97;;;3.17;;
18789;SDS011;9523;42.650;23.386;2023-10-08T05:27:06;4.50;;;2.90;;
18789;SDS011;9523;42.650;23.386;2023-10-08T05:29:49;4.43;;;2.57;;
18789;SDS011;9523;42.650;23.386;2023-10-08T05:32:36;5.10;;;2.90;;
18789;SDS011;9523;42.650;23.386;2023-10-08T05:35:31;4.70;;;2.60;;
18789;SDS011;9523;42.650;23.386;2023-10-08T05:38:14;7.50;;;3.60;;
18789;SDS011;9523;42.650;23.386;2023-10-08T05:40:42;19.60;;;8.13;;
18789;SDS011;9523;42.650;23.386;2023-10-08T05:43:31;14.27;;;6.27;;
18789;SDS011;9523;42.650;23.386;2023-10-08T05:46:20;17.43;;;6.13;;
18789;SDS011;9523;42.650;23.386;2023-10-08T05:49:03;5.83;;;3.40;;
18789;SDS011;9523;42.650;23.386;2023-10-08T05:51:51;4.73;;;2.80;;
18789;SDS011;9523;42.650;23.386;2023-10-08T05:54:36;5.37;;;3.00;;
18789;SDS011;9523;42.650;23.386;2023-10-08T05:57:22;9.20;;;3.20;;
18789;SDS011;9523;42.650;23.386;2023-10-08T06:00:05;5.43;;;3.20;;
18789;SDS011;9523;42.650;23.386;2023-10-08T06:02:58;6.63;;;3.30;;
18789;SDS011;9523;42.650;23.386;2023-10-08T06:05:36;7.97;;;3.60;;
18789;SDS011;9523;42.650;23.386;2023-10-08T06:08:08;8.20;;;4.07;;
18789;SDS011;9523;42.650;23.386;2023-10-08T06:10:40;5.63;;;3.23;;
18789;SDS011;9523;42.650;23.386;2023-10-08T06:13:12;7.70;;;4.63;;
18789;SDS011;9523;42.650;23.386;2023-10-08T06:15:43;6.70;;;3.27;;
18789;SDS011;9523;42.650;23.386;2023-10-08T06:18:13;7.53;;;3.30;;
18789;SDS011;9523;42.650;23.386;2023-10-08T06:20:39;9.67;;;3.77;;
18789;SDS011;9523;42.650;23.386;2023-10-08T06:23:08;6.93;;;3.47;;
18789;SDS011;9523;42.650;23.386;2023-10-08T06:25:39;5.30;;;3.27;;
18789;SDS011;9523;42.650;23.386;2023-10-08T06:28:14;23.47;;;9.70;;
18789;SDS011;9523;42.650;23.386;2023-10-08T06:30:45;14.53;;;6.20;;
18789;SDS011;9523;42.650;23.386;2023-10-08T06:33:12;5.70;;;3.53;;
18789;SDS011;9523;42.650;23.386;2023-10-08T06:35:39;13.17;;;6.20;;
18789;SDS011;9523;42.650;23.386;2023-10-08T06:38:09;14.23;;;6.10;;
18789;SDS011;9523;42.650;23.386;2023-10-08T06:40:36;8.87;;;4.03;;
18789;SDS011;9523;42.650;23.386;2023-10-08T06:43:09;5.30;;;3.17;;
18789;SDS011;9523;42.650;23.386;2023-10-08T06:45:42;6.00;;;3.17;;
18789;SDS011;9523;42.650;23.386;2023-10-08T06:48:10;9.13;;;3.63;;
18789;SDS011;9523;42.650;23.386;2023-10-08T06:50:43;6.93;;;3.90;;
18789;SDS011;9523;42.650;23.386;2023-10-08T06:53:10;8.80;;;4.10;;
18789;SDS011;9523;42.650;23.386;2023-10-08T06:55:39;11.73;;;5.43;;
18789;SDS011;9523;42.650;23.386;2023-10-08T06:58:05;11.50;;;5.10;;
18789;SDS011;9523;42.650;23.386;2023-10-08T07:00:37;8.13;;;3.70;;
18789;SDS011;9523;42.650;23.386;2023-10-08T07:03:13;7.60;;;3.93;;
18789;SDS011;9523;42.650;23.386;2023-10-08T07:05:41;8.13;;;4.10;;
18789;SDS011;9523;42.650;23.386;2023-10-08T07:08:09;8.40;;;3.57;;
18789;SDS011;9523;42.650;23.386;2023-10-08T07:10:38;9.87;;;4.13;;
18789;SDS011;9523;42.650;23.386;2023-10-08T07:13:06;7.10;;;3.10;;
18789;SDS011;9523;42.650;23.386;2023-10-08T07:15:34;7.37;;;3.30;;
18789;SDS011;9523;42.650;23.386;2023-10-08T07:18:04;6.87;;;3.47;;
18789;SDS011;9523;42.650;23.386;2023-10-08T07:20:37;6.07;;;3.50;;
18789;SDS011;9523;42.650;23.386;2023-10-08T07:23:07;8.97;;;4.20;;
18789;SDS011;9523;42.650;23.386;2023-10-08T07:25:44;8.10;;;3.93;;
18789;SDS011;9523;42.650;23.386;2023-10-08T07:28:12;7.23;;;3.73;;
18789;SDS011;9523;42.650;23.386;2023-10-08T07:30:39;7.70;;;4.10;;
18789;SDS011;9523;42.650;23.386;2023-10-08T07:33:09;8.37;;;4.33;;
18789;SDS011;9523;42.650;23.386;2023-10-08T07:35:44;9.83;;;5.40;;
18789;SDS011;9523;42.650;23.386;2023-10-08T07:38:18;10.80;;;4.73;;
18789;SDS011;9523;42.650;23.386;2023-10-08T07:40:49;8.80;;;3.97;;
18789;SDS011;9523;42.650;23.386;2023-10-08T07:43:18;8.00;;;4.73;;
18789;SDS011;9523;42.650;23.386;2023-10-08T07:45:45;9.07;;;4.27;;
18789;SDS011;9523;42.650;23.386;2023-10-08T07:48:12;8.70;;;4.60;;
18789;SDS011;9523;42.650;23.386;2023-10-08T07:50:41;9.83;;;4.20;;
18789;SDS011;9523;42.650;23.386;2023-10-08T07:53:09;9.40;;;4.10;;
18789;SDS011;9523;42.650;23.386;2023-10-08T07:55:43;10.33;;;4.87;;
18789;SDS011;9523;42.650;23.386;2023-10-08T07:58:10;8.00;;;4.37;;
18789;SDS011;9523;42.650;23.386;2023-10-08T08:00:37;10.63;;;4.40;;
18789;SDS011;9523;42.650;23.386;2023-10-08T08:03:06;10.57;;;4.93;;
18789;SDS011;9523;42.650;23.386;2023-10-08T08:05:32;8.57;;;4.40;;
18789;SDS011;9523;42.650;23.386;2023-10-08T08:08:02;10.63;;;4.10;;
18789;SDS011;9523;42.650;23.386;2023-10-08T08:10:33;6.67;;;3.83;;
18789;SDS011;9523;42.650;23.386;2023-10-08T08:13:02;7.72;;;4.28;;
18789;SDS011;9523;42.650;23.386;2023-10-08T08:15:31;10.18;;;3.78;;
18789;SDS011;9523;42.650;23.386;2023-10-08T08:17:58;9.02;;;3.53;;
18789;SDS011;9523;42.650;23.386;2023-10-08T08:20:25;9.05;;;4.32;;
18789;SDS011;9523;42.650;23.386;2023-10-08T08:23:04;9.32;;;3.67;;
18789;SDS011;9523;42.650;23.386;2023-10-08T08:25:36;7.28;;;3.45;;
18789;SDS011;9523;42.650;23.386;2023-10-08T08:28:10;6.85;;;3.70;;
18789;SDS011;9523;42.650;23.386;2023-10-08T08:30:42;7.75;;;3.90;;
18789;SDS011;9523;42.650;23.386;2023-10-08T08:33:12;9.15;;;3.80;;
18789;SDS011;9523;42.650;23.386;2023-10-08T08:35:39;6.53;;;3.17;;
18789;SDS011;9523;42.650;23.386;2023-10-08T08:38:09;8.25;;;4.05;;
18789;SDS011;9523;42.650;23.386;2023-10-08T08:40:38;4.53;;;2.80;;
18789;SDS011;9523;42.650;23.386;2023-10-08T08:43:06;5.68;;;3.20;;
18789;SDS011;9523;42.650;23.386;2023-10-08T08:45:35;5.55;;;2.80;;
18789;SDS011;9523;42.650;23.386;2023-10-08T08:48:03;5.60;;;3.00;;
18789;SDS011;9523;42.650;23.386;2023-10-08T08:50:30;5.68;;;3.15;;
18789;SDS011;9523;42.650;23.386;2023-10-08T08:52:57;8.43;;;3.25;;
18789;SDS011;9523;42.650;23.386;2023-10-08T08:55:24;4.88;;;2.60;;
18789;SDS011;9523;42.650;23.386;2023-10-08T08:57:54;5.25;;;2.72;;
18789;SDS011;9523;42.650;23.386;2023-10-08T09:00:20;6.53;;;3.10;;
18789;SDS011;9523;42.650;23.386;2023-10-08T09:02:50;5.28;;;3.22;;
18789;SDS011;9523;42.650;23.386;2023-10-08T09:05:17;6.60;;;3.47;;
18789;SDS011;9523;42.650;23.386;2023-10-08T09:07:55;6.78;;;2.63;;
18789;SDS011;9523;42.650;23.386;2023-10-08T09:10:22;5.10;;;2.83;;
18789;SDS011;9523;42.650;23.386;2023-10-08T09:12:54;6.43;;;3.00;;
18789;SDS011;9523;42.650;23.386;2023-10-08T09:15:23;5.63;;;2.45;;
18789;SDS011;9523;42.650;23.386;2023-10-08T09:17:51;5.53;;;2.40;;
18789;SDS011;9523;42.650;23.386;2023-10-08T09:20:18;5.50;;;2.25;;
18789;SDS011;9523;42.650;23.386;2023-10-08T09:22:46;6.05;;;2.53;;
18789;SDS011;9523;42.650;23.386;2023-10-08T09:25:15;4.47;;;2.50;;
18789;SDS011;9523;42.650;23.386;2023-10-08T09:27:50;5.22;;;2.60;;
18789;SDS011;9523;42.650;23.386;2023-10-08T09:30:19;5.10;;;2.20;;
18789;SDS011;9523;42.650;23.386;2023-10-08T09:32:46;5.63;;;2.38;;
18789;SDS011;9523;42.650;23.386;2023-10-08T09:35:14;4.68;;;2.53;;
18789;SDS011;9523;42.650;23.386;2023-10-08T09:37:41;4.65;;;2.45;;
18789;SDS011;9523;42.650;23.386;2023-10-08T09:40:09;5.47;;;2.15;;
18789;SDS011;9523;42.650;23.386;2023-10-08T09:42:36;4.60;;;2.13;;
18789;SDS011;9523;42.650;23.386;2023-10-08T09:45:04;5.65;;;2.15;;
18789;SDS011;9523;42.650;23.386;2023-10-08T09:47:32;4.70;;;2.22;;
18789;SDS011;9523;42.650;23.386;2023-10-08T09:50:03;5.75;;;2.17;;
18789;SDS011;9523;42.650;23.386;2023-10-08T09:52:33;4.13;;;2.00;;
18789;SDS011;9523;42.650;23.386;2023-10-08T09:55:02;5.53;;;2.65;;
18789;SDS011;9523;42.650;23.386;2023-10-08T09:57:35;5.50;;;2.00;;
18789;SDS011;9523;42.650;23.386;2023-10-08T10:00:02;4.45;;;2.58;;
18789;SDS011;9523;42.650;23.386;2023-10-08T10:02:33;4.78;;;2.50;;
18789;SDS011;9523;42.650;23.386;2023-10-08T10:05:00;5.03;;;2.25;;
18789;SDS011;9523;42.650;23.386;2023-10-08T10:07:27;4.53;;;2.15;;
18789;SDS011;9523;42.650;23.386;2023-10-08T10:09:54;10.90;;;6.47;;
18789;SDS011;9523;42.650;23.386;2023-10-08T10:12:24;5.25;;;2.40;;
18789;SDS011;9523;42.650;23.386;2023-10-08T10:14:52;4.47;;;2.30;;
18789;SDS011;9523;42.650;23.386;2023-10-08T10:17:20;8.13;;;2.38;;
18789;SDS011;9523;42.650;23.386;2023-10-08T10:19:51;4.47;;;2.22;;
18789;SDS011;9523;42.650;23.386;2023-10-08T10:22:27;4.85;;;2.38;;
18789;SDS011;9523;42.650;23.386;2023-10-08T10:24:54;4.78;;;2.38;;
18789;SDS011;9523;42.650;23.386;2023-10-08T10:27:20;4.32;;;2.33;;
18789;SDS011;9523;42.650;23.386;2023-10-08T10:29:47;4.78;;;2.38;;
18789;SDS011;9523;42.650;23.386;2023-10-08T10:32:14;3.75;;;2.17;;
18789;SDS011;9523;42.650;23.386;2023-10-08T10:34:44;4.65;;;2.42;;
18789;SDS011;9523;42.650;23.386;2023-10-08T10:37:18;4.80;;;2.17;;
18789;SDS011;9523;42.650;23.386;2023-10-08T10:39:52;3.28;;;1.70;;
18789;SDS011;9523;42.650;23.386;2023-10-08T10:42:20;3.50;;;1.65;;
18789;SDS011;9523;42.650;23.386;2023-10-08T10:44:47;2.72;;;1.40;;
18789;SDS011;9523;42.650;23.386;2023-10-08T10:47:16;4.00;;;2.70;;
18789;SDS011;9523;42.650;23.386;2023-10-08T10:50:08;6.10;;;2.20;;
18789;SDS011;9523;42.650;23.386;2023-10-08T10:52:53;3.67;;;2.05;;
18789;SDS011;9523;42.650;23.386;2023-10-08T10:55:19;4.78;;;2.20;;
18789;SDS011;9523;42.650;23.386;2023-10-08T10:57:48;5.10;;;1.92;;
18789;SDS011;9523;42.650;23.386;2023-10-08T11:00:21;3.97;;;1.88;;
18789;SDS011;9523;42.650;23.386;2023-10-08T11:03:02;6.10;;;2.30;;
18789;SDS011;9523;42.650;23.386;2023-10-08T11:05:29;3.45;;;1.80;;
18789;SDS011;9523;42.650;23.386;2023-10-08T11:07:58;3.40;;;2.00;;
18789;SDS011;9523;42.650;23.386;2023-10-08T11:10:30;3.45;;;1.80;;
18789;SDS011;9523;42.650;23.386;2023-10-08T11:12:57;3.60;;;2.25;;
18789;SDS011;9523;42.650;23.386;2023-10-08T11:15:26;3.90;;;2.15;;
18789;SDS011;9523;42.650;23.386;2023-10-08T11:18:06;4.38;;;2.10;;
18789;SDS011;9523;42.650;23.386;2023-10-08T11:20:33;3.75;;;1.95;;
18789;SDS011;9523;42.650;23.386;2023-10-08T11:23:05;2.97;;;1.65;;
18789;SDS011;9523;42.650;23.386;2023-10-08T11:25:52;2.85;;;1.80;;
18789;SDS011;9523;42.650;23.386;2023-10-08T11:28:18;6.93;;;2.25;;
18789;SDS011;9523;42.650;23.386;2023-10-08T11:30:45;3.47;;;1.60;;
18789;SDS011;9523;42.650;23.386;2023-10-08T11:33:14;4.45;;;1.88;;
18789;SDS011;9523;42.650;23.386;2023-10-08T11:35:54;4.60;;;2.40;;
18789;SDS011;9523;42.650;23.386;2023-10-08T11:38:22;2.92;;;1.63;;
18789;SDS011;9523;42.650;23.386;2023-10-08T11:40:49;3.60;;;1.40;;
18789;SDS011;9523;42.650;23.386;2023-10-08T11:43:21;8.70;;;2.22;;
18789;SDS011;9523;42.650;23.386;2023-10-08T11:45:48;5.90;;;1.95;;
18789;SDS011;9523;42.650;23.386;2023-10-08T11:48:14;4.50;;;2.13;;
18789;SDS011;9523;42.650;23.386;2023-10-08T11:50:47;6.07;;;1.90;;
18789;SDS011;9523;42.650;23.386;2023-10-08T11:53:15;5.13;;;1.92;;
18789;SDS011;9523;42.650;23.386;2023-10-08T11:55:45;3.63;;;2.13;;
18789;SDS011;9523;42.650;23.386;2023-10-08T11:58:13;5.30;;;1.83;;
18789;SDS011;9523;42.650;23.386;2023-10-08T12:00:43;4.32;;;1.90;;
18789;SDS011;9523;42.650;23.386;2023-10-08T12:03:10;6.18;;;1.90;;
18789;SDS011;9523;42.650;23.386;2023-10-08T12:05:37;5.13;;;1.92;;
18789;SDS011;9523;42.650;23.386;2023-10-08T12:08:12;5.18;;;1.73;;
18789;SDS011;9523;42.650;23.386;2023-10-08T12:10:39;7.05;;;1.88;;
18789;SDS011;9523;42.650;23.386;2023-10-08T12:13:08;8.07;;;1.83;;
18789;SDS011;9523;42.650;23.386;2023-10-08T12:15:35;6.07;;;2.03;;
18789;SDS011;9523;42.650;23.386;2023-10-08T12:18:04;4.25;;;2.00;;
18789;SDS011;9523;42.650;23.386;2023-10-08T12:20:41;5.82;;;2.08;;
18789;SDS011;9523;42.650;23.386;2023-10-08T12:23:09;5.30;;;2.45;;
18789;SDS011;9523;42.650;23.386;2023-10-08T12:25:36;4.47;;;1.77;;
18789;SDS011;9523;42.650;23.386;2023-10-08T12:28:03;5.03;;;1.73;;
18789;SDS011;9523;42.650;23.386;2023-10-08T12:30:31;5.07;;;2.15;;
18789;SDS011;9523;42.650;23.386;2023-10-08T12:33:06;6.07;;;2.30;;
18789;SDS011;9523;42.650;23.386;2023-10-08T12:35:38;5.50;;;1.98;;
18789;SDS011;9523;42.650;23.386;2023-10-08T12:38:04;5.00;;;1.92;;
18789;SDS011;9523;42.650;23.386;2023-10-08T12:40:31;4.15;;;1.65;;
18789;SDS011;9523;42.650;23.386;2023-10-08T12:43:07;4.88;;;2.10;;
18789;SDS011;9523;42.650;23.386;2023-10-08T12:45:35;7.20;;;2.35;;
18789;SDS011;9523;42.650;23.386;2023-10-08T12:48:03;5.40;;;2.13;;
18789;SDS011;9523;42.650;23.386;2023-10-08T12:50:30;6.53;;;1.88;;
18789;SDS011;9523;42.650;23.386;2023-10-08T12:53:09;9.50;;;2.30;;
18789;SDS011;9523;42.650;23.386;2023-10-08T12:55:36;4.80;;;1.30;;
18789;SDS011;9523;42.650;23.386;2023-10-08T12:58:04;9.15;;;2.47;;
18789;SDS011;9523;42.650;23.386;2023-10-08T13:00:37;6.80;;;2.03;;
18789;SDS011;9523;42.650;23.386;2023-10-08T13:03:06;3.53;;;1.80;;
18789;SDS011;9523;42.650;23.386;2023-10-08T13:05:40;4.38;;;1.95;;
18789;SDS011;9523;42.650;23.386;2023-10-08T13:08:09;10.68;;;2.42;;
18789;SDS011;9523;42.650;23.386;2023-10-08T13:10:39;7.32;;;2.85;;
18789;SDS011;9523;42.650;23.386;2023-10-08T13:13:09;7.35;;;1.52;;
18789;SDS011;9523;42.650;23.386;2023-10-08T13:15:37;5.18;;;1.80;;
18789;SDS011;9523;42.650;23.386;2023-10-08T13:18:04;4.50;;;1.60;;
18789;SDS011;9523;42.650;23.386;2023-10-08T13:20:30;7.18;;;1.48;;
18789;SDS011;9523;42.650;23.386;2023-10-08T13:22:58;7.03;;;2.17;;
18789;SDS011;9523;42.650;23.386;2023-10-08T13:25:25;6.82;;;1.67;;
18789;SDS011;9523;42.650;23.386;2023-10-08T13:27:52;7.32;;;2.20;;
18789;SDS011;9523;42.650;23.386;2023-10-08T13:30:19;6.45;;;2.10;;
18789;SDS011;9523;42.650;23.386;2023-10-08T13:32:50;4.35;;;1.63;;
18789;SDS011;9523;42.650;23.386;2023-10-08T13:35:16;7.65;;;2.03;;
18789;SDS011;9523;42.650;23.386;2023-10-08T13:37:43;8.20;;;2.30;;
18789;SDS011;9523;42.650;23.386;2023-10-08T13:40:10;6.15;;;2.05;;
18789;SDS011;9523;42.650;23.386;2023-10-08T13:42:40;11.77;;;4.40;;
18789;SDS011;9523;42.650;23.386;2023-10-08T13:45:08;7.47;;;1.95;;
18789;SDS011;9523;42.650;23.386;2023-10-08T13:47:34;9.15;;;2.72;;
18789;SDS011;9523;42.650;23.386;2023-10-08T13:50:06;4.28;;;1.45;;
18789;SDS011;9523;42.650;23.386;2023-10-08T13:52:35;8.32;;;1.70;;
18789;SDS011;9523;42.650;23.386;2023-10-08T13:55:04;4.45;;;2.00;;
18789;SDS011;9523;42.650;23.386;2023-10-08T13:57:31;7.22;;;1.73;;
18789;SDS011;9523;42.650;23.386;2023-10-08T13:59:59;6.82;;;2.20;;
18789;SDS011;9523;42.650;23.386;2023-10-08T14:02:26;3.70;;;1.90;;
18789;SDS011;9523;42.650;23.386;2023-10-08T14:04:55;4.82;;;2.00;;
18789;SDS011;9523;42.650;23.386;2023-10-08T14:07:24;6.30;;;2.25;;
18789;SDS011;9523;42.650;23.386;2023-10-08T14:09:52;6.93;;;1.98;;
18789;SDS011;9523;42.650;23.386;2023-10-08T14:12:19;5.25;;;1.70;;
18789;SDS011;9523;42.650;23.386;2023-10-08T14:14:45;3.72;;;1.70;;
18789;SDS011;9523;42.650;23.386;2023-10-08T14:17:14;5.35;;;2.05;;
18789;SDS011;9523;42.650;23.386;2023-10-08T14:19:41;6.18;;;2.28;;
18789;SDS011;9523;42.650;23.386;2023-10-08T14:22:16;8.18;;;1.98;;
18789;SDS011;9523;42.650;23.386;2023-10-08T14:24:48;4.72;;;2.15;;
18789;SDS011;9523;42.650;23.386;2023-10-08T14:27:23;4.25;;;1.58;;
18789;SDS011;9523;42.650;23.386;2023-10-08T14:29:56;6.95;;;1.65;;
18789;SDS011;9523;42.650;23.386;2023-10-08T14:32:26;4.80;;;1.60;;
18789;SDS011;9523;42.650;23.386;2023-10-08T14:34:52;10.60;;;4.47;;
18789;SDS011;9523;42.650;23.386;2023-10-08T14:37:36;4.85;;;2.50;;
18789;SDS011;9523;42.650;23.386;2023-10-08T14:40:22;7.70;;;2.10;;
18789;SDS011;9523;42.650;23.386;2023-10-08T14:43:06;8.90;;;1.85;;
18789;SDS011;9523;42.650;23.386;2023-10-08T14:45:36;4.38;;;2.00;;
18789;SDS011;9523;42.650;23.386;2023-10-08T14:48:06;11.77;;;2.60;;
18789;SDS011;9523;42.650;23.386;2023-10-08T14:50:36;6.35;;;2.05;;
18789;SDS011;9523;42.650;23.386;2023-10-08T14:53:04;8.48;;;2.88;;
18789;SDS011;9523;42.650;23.386;2023-10-08T14:55:32;10.10;;;2.40;;
18789;SDS011;9523;42.650;23.386;2023-10-08T14:58:01;9.13;;;2.20;;
18789;SDS011;9523;42.650;23.386;2023-10-08T15:00:32;8.73;;;2.00;;
18789;SDS011;9523;42.650;23.386;2023-10-08T15:03:01;10.05;;;2.53;;
18789;SDS011;9523;42.650;23.386;2023-10-08T15:05:28;8.63;;;2.22;;
18789;SDS011;9523;42.650;23.386;2023-10-08T15:07:55;8.20;;;2.55;;
18789;SDS011;9523;42.650;23.386;2023-10-08T15:10:22;6.72;;;2.55;;